sensor_id;sensor_type;location;lat;lon;timestamp;temperature;humidity
68433;DHT22;55412;51.350;17.056;2023-06-19T00:00:32;17.00;69.80
68433;DHT22;55412;51.350;17.056;2023-06-19T00:02:58;16.80;70.50
68433;DHT22;55412;51.350;17.056;2023-06-19T00:05:24;16.70;70.90
68433;DHT22;55412;51.350;17.056;2023-06-19T00:07:51;16.70;70.80
68433;DHT22;55412;51.350;17.056;2023-06-19T00:10:17;16.70;70.30
68433;DHT22;55412;51.350;17.056;2023-06-19T00:12:43;16.70;69.90
68433;DHT22;55412;51.350;17.056;2023-06-19T00:15:10;16.70;69.60
68433;DHT22;55412;51.350;17.056;2023-06-19T00:17:36;16.80;69.30
68433;DHT22;55412;51.350;17.056;2023-06-19T00:20:05;16.60;69.50
68433;DHT22;55412;51.350;17.056;2023-06-19T00:22:32;16.40;70.00
68433;DHT22;55412;51.350;17.056;2023-06-19T00:24:58;16.40;70.70
68433;DHT22;55412;51.350;17.056;2023-06-19T00:27:24;16.50;70.50
68433;DHT22;55412;51.350;17.056;2023-06-19T00:29:51;16.40;70.20
68433;DHT22;55412;51.350;17.056;2023-06-19T00:32:17;16.40;70.30
68433;DHT22;55412;51.350;17.056;2023-06-19T00:34:43;16.50;70.20
68433;DHT22;55412;51.350;17.056;2023-06-19T00:37:09;16.40;70.50
68433;DHT22;55412;51.350;17.056;2023-06-19T00:39:39;16.30;70.70
68433;DHT22;55412;51.350;17.056;2023-06-19T00:42:08;16.30;70.70
68433;DHT22;55412;51.350;17.056;2023-06-19T00:44:34;16.30;70.60
68433;DHT22;55412;51.350;17.056;2023-06-19T00:47:02;16.30;70.60
68433;DHT22;55412;51.350;17.056;2023-06-19T00:49:29;16.20;69.90
68433;DHT22;55412;51.350;17.056;2023-06-19T00:51:56;16.00;69.90
68433;DHT22;55412;51.350;17.056;2023-06-19T00:54:24;16.00;70.20
68433;DHT22;55412;51.350;17.056;2023-06-19T00:56:50;16.00;70.90
68433;DHT22;55412;51.350;17.056;2023-06-19T00:59:18;16.10;71.40
68433;DHT22;55412;51.350;17.056;2023-06-19T01:01:45;16.30;71.30
68433;DHT22;55412;51.350;17.056;2023-06-19T01:04:12;16.40;71.60
68433;DHT22;55412;51.350;17.056;2023-06-19T01:06:50;16.30;71.70
68433;DHT22;55412;51.350;17.056;2023-06-19T01:09:36;16.30;71.20
68433;DHT22;55412;51.350;17.056;2023-06-19T01:12:16;16.10;70.90
68433;DHT22;55412;51.350;17.056;2023-06-19T01:15:02;16.00;71.40
68433;DHT22;55412;51.350;17.056;2023-06-19T01:17:31;15.80;72.10
68433;DHT22;55412;51.350;17.056;2023-06-19T01:19:58;15.70;73.10
68433;DHT22;55412;51.350;17.056;2023-06-19T01:22:26;15.60;73.20
68433;DHT22;55412;51.350;17.056;2023-06-19T01:24:55;15.70;73.00
68433;DHT22;55412;51.350;17.056;2023-06-19T01:27:23;15.60;73.70
68433;DHT22;55412;51.350;17.056;2023-06-19T01:29:51;15.60;73.30
68433;DHT22;55412;51.350;17.056;2023-06-19T01:35:02;15.60;73.20
68433;DHT22;55412;51.350;17.056;2023-06-19T01:37:28;15.70;71.80
68433;DHT22;55412;51.350;17.056;2023-06-19T01:39:57;15.60;72.10
68433;DHT22;55412;51.350;17.056;2023-06-19T01:42:23;15.40;72.60
68433;DHT22;55412;51.350;17.056;2023-06-19T01:44:51;15.40;73.10
68433;DHT22;55412;51.350;17.056;2023-06-19T01:47:17;15.40;72.80
68433;DHT22;55412;51.350;17.056;2023-06-19T01:49:46;15.30;73.70
68433;DHT22;55412;51.350;17.056;2023-06-19T01:52:12;15.40;73.60
68433;DHT22;55412;51.350;17.056;2023-06-19T01:54:39;15.50;72.90
68433;DHT22;55412;51.350;17.056;2023-06-19T01:57:05;15.40;73.20
68433;DHT22;55412;51.350;17.056;2023-06-19T01:59:32;15.50;72.90
68433;DHT22;55412;51.350;17.056;2023-06-19T02:01:58;15.50;71.70
68433;DHT22;55412;51.350;17.056;2023-06-19T02:04:24;15.60;71.40
68433;DHT22;55412;51.350;17.056;2023-06-19T02:06:50;15.60;71.50
68433;DHT22;55412;51.350;17.056;2023-06-19T02:09:16;15.60;71.70
68433;DHT22;55412;51.350;17.056;2023-06-19T02:11:42;15.70;71.90
68433;DHT22;55412;51.350;17.056;2023-06-19T02:14:09;15.70;71.20
68433;DHT22;55412;51.350;17.056;2023-06-19T02:16:36;15.70;70.80
68433;DHT22;55412;51.350;17.056;2023-06-19T02:19:03;15.80;70.90
68433;DHT22;55412;51.350;17.056;2023-06-19T02:21:29;15.80;70.20
68433;DHT22;55412;51.350;17.056;2023-06-19T02:23:54;15.90;70.40
68433;DHT22;55412;51.350;17.056;2023-06-19T02:26:21;15.50;69.70
68433;DHT22;55412;51.350;17.056;2023-06-19T02:28:47;15.20;71.20
68433;DHT22;55412;51.350;17.056;2023-06-19T02:31:13;15.20;72.10
68433;DHT22;55412;51.350;17.056;2023-06-19T02:33:39;15.30;71.50
68433;DHT22;55412;51.350;17.056;2023-06-19T02:36:05;15.30;71.80
68433;DHT22;55412;51.350;17.056;2023-06-19T02:38:31;15.40;71.70
68433;DHT22;55412;51.350;17.056;2023-06-19T02:40:57;15.40;71.50
68433;DHT22;55412;51.350;17.056;2023-06-19T02:43:25;15.40;71.70
68433;DHT22;55412;51.350;17.056;2023-06-19T02:45:52;15.40;71.70
68433;DHT22;55412;51.350;17.056;2023-06-19T02:48:18;15.20;72.30
68433;DHT22;55412;51.350;17.056;2023-06-19T02:50:45;15.00;73.30
68433;DHT22;55412;51.350;17.056;2023-06-19T02:53:11;14.90;73.40
68433;DHT22;55412;51.350;17.056;2023-06-19T02:55:37;14.70;73.50
68433;DHT22;55412;51.350;17.056;2023-06-19T02:58:02;14.60;73.90
68433;DHT22;55412;51.350;17.056;2023-06-19T03:00:29;14.50;74.20
68433;DHT22;55412;51.350;17.056;2023-06-19T03:02:55;14.60;74.60
68433;DHT22;55412;51.350;17.056;2023-06-19T03:05:21;14.80;74.00
68433;DHT22;55412;51.350;17.056;2023-06-19T03:07:48;14.90;74.30
68433;DHT22;55412;51.350;17.056;2023-06-19T03:10:14;14.60;76.60
68433;DHT22;55412;51.350;17.056;2023-06-19T03:12:40;14.40;76.80
68433;DHT22;55412;51.350;17.056;2023-06-19T03:15:06;14.30;76.60
68433;DHT22;55412;51.350;17.056;2023-06-19T03:17:32;14.30;76.90
68433;DHT22;55412;51.350;17.056;2023-06-19T03:19:58;14.20;77.80
68433;DHT22;55412;51.350;17.056;2023-06-19T03:22:24;14.30;77.40
68433;DHT22;55412;51.350;17.056;2023-06-19T03:24:50;14.50;76.90
68433;DHT22;55412;51.350;17.056;2023-06-19T03:27:17;14.70;76.40
68433;DHT22;55412;51.350;17.056;2023-06-19T03:29:43;14.80;75.90
68433;DHT22;55412;51.350;17.056;2023-06-19T03:32:09;14.90;75.40
68433;DHT22;55412;51.350;17.056;2023-06-19T03:34:35;15.10;74.10
68433;DHT22;55412;51.350;17.056;2023-06-19T03:37:01;15.20;74.20
68433;DHT22;55412;51.350;17.056;2023-06-19T03:39:27;15.30;73.10
68433;DHT22;55412;51.350;17.056;2023-06-19T03:41:53;15.40;73.60
68433;DHT22;55412;51.350;17.056;2023-06-19T03:44:19;15.50;73.50
68433;DHT22;55412;51.350;17.056;2023-06-19T03:46:46;15.60;73.50
68433;DHT22;55412;51.350;17.056;2023-06-19T03:49:13;15.70;74.20
68433;DHT22;55412;51.350;17.056;2023-06-19T03:51:39;15.70;73.50
68433;DHT22;55412;51.350;17.056;2023-06-19T03:54:05;15.80;72.10
68433;DHT22;55412;51.350;17.056;2023-06-19T03:56:32;15.90;73.10
68433;DHT22;55412;51.350;17.056;2023-06-19T03:58:59;16.00;74.10
68433;DHT22;55412;51.350;17.056;2023-06-19T04:01:25;16.10;74.30
68433;DHT22;55412;51.350;17.056;2023-06-19T04:03:51;16.20;74.30
68433;DHT22;55412;51.350;17.056;2023-06-19T04:06:17;16.30;72.00
68433;DHT22;55412;51.350;17.056;2023-06-19T04:08:43;16.40;74.30
68433;DHT22;55412;51.350;17.056;2023-06-19T04:11:09;16.50;74.40
68433;DHT22;55412;51.350;17.056;2023-06-19T04:13:35;16.60;73.80
68433;DHT22;55412;51.350;17.056;2023-06-19T04:16:01;16.70;75.00
68433;DHT22;55412;51.350;17.056;2023-06-19T04:18:28;16.80;75.60
68433;DHT22;55412;51.350;17.056;2023-06-19T04:20:54;16.90;72.40
68433;DHT22;55412;51.350;17.056;2023-06-19T04:23:20;17.10;73.20
68433;DHT22;55412;51.350;17.056;2023-06-19T04:25:46;17.20;73.30
68433;DHT22;55412;51.350;17.056;2023-06-19T04:28:12;17.40;73.10
68433;DHT22;55412;51.350;17.056;2023-06-19T04:30:38;17.70;74.20
68433;DHT22;55412;51.350;17.056;2023-06-19T04:33:08;17.80;71.80
68433;DHT22;55412;51.350;17.056;2023-06-19T04:35:34;18.10;73.00
68433;DHT22;55412;51.350;17.056;2023-06-19T04:38:06;18.30;72.50
68433;DHT22;55412;51.350;17.056;2023-06-19T04:40:33;18.60;72.80
68433;DHT22;55412;51.350;17.056;2023-06-19T04:43:00;18.90;72.30
68433;DHT22;55412;51.350;17.056;2023-06-19T04:45:28;19.10;71.70
68433;DHT22;55412;51.350;17.056;2023-06-19T04:47:54;19.30;71.70
68433;DHT22;55412;51.350;17.056;2023-06-19T04:50:21;19.30;71.50
68433;DHT22;55412;51.350;17.056;2023-06-19T04:52:47;19.30;71.80
68433;DHT22;55412;51.350;17.056;2023-06-19T04:55:15;19.40;71.60
68433;DHT22;55412;51.350;17.056;2023-06-19T04:57:41;19.60;70.70
68433;DHT22;55412;51.350;17.056;2023-06-19T05:00:08;19.80;70.20
68433;DHT22;55412;51.350;17.056;2023-06-19T05:02:39;19.90;69.00
68433;DHT22;55412;51.350;17.056;2023-06-19T05:05:09;19.90;68.80
68433;DHT22;55412;51.350;17.056;2023-06-19T05:07:35;20.00;68.10
68433;DHT22;55412;51.350;17.056;2023-06-19T05:10:01;20.00;69.60
68433;DHT22;55412;51.350;17.056;2023-06-19T05:12:27;20.10;69.00
68433;DHT22;55412;51.350;17.056;2023-06-19T05:14:53;20.20;69.90
68433;DHT22;55412;51.350;17.056;2023-06-19T05:17:19;20.30;69.30
68433;DHT22;55412;51.350;17.056;2023-06-19T05:19:45;20.40;69.10
68433;DHT22;55412;51.350;17.056;2023-06-19T05:22:12;20.50;68.80
68433;DHT22;55412;51.350;17.056;2023-06-19T05:24:38;20.60;68.70
68433;DHT22;55412;51.350;17.056;2023-06-19T05:27:04;20.70;68.30
68433;DHT22;55412;51.350;17.056;2023-06-19T05:29:31;20.70;67.80
68433;DHT22;55412;51.350;17.056;2023-06-19T05:31:57;20.70;67.90
68433;DHT22;55412;51.350;17.056;2023-06-19T05:34:23;20.60;68.90
68433;DHT22;55412;51.350;17.056;2023-06-19T05:36:49;20.70;67.70
68433;DHT22;55412;51.350;17.056;2023-06-19T05:39:15;20.70;68.00
68433;DHT22;55412;51.350;17.056;2023-06-19T05:41:44;20.80;68.00
68433;DHT22;55412;51.350;17.056;2023-06-19T05:44:11;20.90;68.00
68433;DHT22;55412;51.350;17.056;2023-06-19T05:46:42;21.10;67.50
68433;DHT22;55412;51.350;17.056;2023-06-19T05:49:08;21.20;65.70
68433;DHT22;55412;51.350;17.056;2023-06-19T05:51:34;21.20;66.80
68433;DHT22;55412;51.350;17.056;2023-06-19T05:54:00;21.40;66.80
68433;DHT22;55412;51.350;17.056;2023-06-19T05:56:31;21.70;66.00
68433;DHT22;55412;51.350;17.056;2023-06-19T05:58:59;21.90;64.20
68433;DHT22;55412;51.350;17.056;2023-06-19T06:01:25;22.10;64.50
68433;DHT22;55412;51.350;17.056;2023-06-19T06:03:55;22.40;63.20
68433;DHT22;55412;51.350;17.056;2023-06-19T06:06:23;22.70;62.40
68433;DHT22;55412;51.350;17.056;2023-06-19T06:08:49;22.90;62.50
68433;DHT22;55412;51.350;17.056;2023-06-19T06:11:17;23.10;62.40
68433;DHT22;55412;51.350;17.056;2023-06-19T06:13:43;23.40;59.30
68433;DHT22;55412;51.350;17.056;2023-06-19T06:16:09;23.70;59.80
68433;DHT22;55412;51.350;17.056;2023-06-19T06:18:35;24.10;59.50
68433;DHT22;55412;51.350;17.056;2023-06-19T06:21:01;24.40;58.20
68433;DHT22;55412;51.350;17.056;2023-06-19T06:23:27;24.80;56.70
68433;DHT22;55412;51.350;17.056;2023-06-19T06:25:54;25.20;55.30
68433;DHT22;55412;51.350;17.056;2023-06-19T06:28:26;25.30;54.80
68433;DHT22;55412;51.350;17.056;2023-06-19T06:30:52;25.50;54.70
68433;DHT22;55412;51.350;17.056;2023-06-19T06:33:19;25.40;54.30
68433;DHT22;55412;51.350;17.056;2023-06-19T06:35:45;25.70;54.30
68433;DHT22;55412;51.350;17.056;2023-06-19T06:38:11;26.20;52.80
68433;DHT22;55412;51.350;17.056;2023-06-19T06:40:37;26.80;52.20
68433;DHT22;55412;51.350;17.056;2023-06-19T06:43:03;27.30;50.00
68433;DHT22;55412;51.350;17.056;2023-06-19T06:45:29;27.60;49.80
68433;DHT22;55412;51.350;17.056;2023-06-19T06:47:55;27.80;49.50
68433;DHT22;55412;51.350;17.056;2023-06-19T06:50:21;27.70;49.10
68433;DHT22;55412;51.350;17.056;2023-06-19T06:52:47;27.40;50.20
68433;DHT22;55412;51.350;17.056;2023-06-19T06:55:13;27.20;49.90
68433;DHT22;55412;51.350;17.056;2023-06-19T06:57:39;26.90;51.10
68433;DHT22;55412;51.350;17.056;2023-06-19T07:00:06;26.80;51.60
68433;DHT22;55412;51.350;17.056;2023-06-19T07:02:35;26.70;51.90
68433;DHT22;55412;51.350;17.056;2023-06-19T07:05:03;26.40;51.00
68433;DHT22;55412;51.350;17.056;2023-06-19T07:07:29;26.10;52.90
68433;DHT22;55412;51.350;17.056;2023-06-19T07:09:55;25.90;53.30
68433;DHT22;55412;51.350;17.056;2023-06-19T07:12:21;25.60;52.50
68433;DHT22;55412;51.350;17.056;2023-06-19T07:14:47;25.20;53.60
68433;DHT22;55412;51.350;17.056;2023-06-19T07:17:13;25.10;53.90
68433;DHT22;55412;51.350;17.056;2023-06-19T07:19:39;24.80;53.70
68433;DHT22;55412;51.350;17.056;2023-06-19T07:22:05;24.60;53.80
68433;DHT22;55412;51.350;17.056;2023-06-19T07:24:31;24.70;54.10
68433;DHT22;55412;51.350;17.056;2023-06-19T07:26:57;24.80;53.60
68433;DHT22;55412;51.350;17.056;2023-06-19T07:29:23;25.00;52.70
68433;DHT22;55412;51.350;17.056;2023-06-19T07:31:51;25.20;52.70
68433;DHT22;55412;51.350;17.056;2023-06-19T07:34:17;25.30;52.50
68433;DHT22;55412;51.350;17.056;2023-06-19T07:36:43;25.00;52.10
68433;DHT22;55412;51.350;17.056;2023-06-19T07:39:09;24.70;53.40
68433;DHT22;55412;51.350;17.056;2023-06-19T07:41:36;24.70;53.00
68433;DHT22;55412;51.350;17.056;2023-06-19T07:44:02;24.60;53.90
68433;DHT22;55412;51.350;17.056;2023-06-19T07:46:28;24.80;53.50
68433;DHT22;55412;51.350;17.056;2023-06-19T07:48:54;24.90;53.60
68433;DHT22;55412;51.350;17.056;2023-06-19T07:51:20;25.10;53.40
68433;DHT22;55412;51.350;17.056;2023-06-19T07:53:46;25.30;53.00
68433;DHT22;55412;51.350;17.056;2023-06-19T07:56:12;25.30;52.90
68433;DHT22;55412;51.350;17.056;2023-06-19T07:58:38;25.00;52.70
68433;DHT22;55412;51.350;17.056;2023-06-19T08:01:04;24.90;53.60
68433;DHT22;55412;51.350;17.056;2023-06-19T08:03:30;24.90;52.90
68433;DHT22;55412;51.350;17.056;2023-06-19T08:05:57;25.10;52.60
68433;DHT22;55412;51.350;17.056;2023-06-19T08:08:23;25.20;52.70
68433;DHT22;55412;51.350;17.056;2023-06-19T08:10:49;25.70;50.40
68433;DHT22;55412;51.350;17.056;2023-06-19T08:13:15;26.10;48.10
68433;DHT22;55412;51.350;17.056;2023-06-19T08:15:41;26.50;47.30
68433;DHT22;55412;51.350;17.056;2023-06-19T08:18:07;26.70;47.20
68433;DHT22;55412;51.350;17.056;2023-06-19T08:20:33;26.90;47.00
68433;DHT22;55412;51.350;17.056;2023-06-19T08:22:59;26.90;46.30
68433;DHT22;55412;51.350;17.056;2023-06-19T08:25:25;26.90;46.10
68433;DHT22;55412;51.350;17.056;2023-06-19T08:27:51;26.70;46.00
68433;DHT22;55412;51.350;17.056;2023-06-19T08:30:17;26.30;47.40
68433;DHT22;55412;51.350;17.056;2023-06-19T08:32:44;25.90;47.80
68433;DHT22;55412;51.350;17.056;2023-06-19T08:35:10;25.90;48.80
68433;DHT22;55412;51.350;17.056;2023-06-19T08:37:36;25.90;47.70
68433;DHT22;55412;51.350;17.056;2023-06-19T08:40:02;26.00;45.30
68433;DHT22;55412;51.350;17.056;2023-06-19T08:42:36;26.30;44.90
68433;DHT22;55412;51.350;17.056;2023-06-19T08:45:08;26.30;45.80
68433;DHT22;55412;51.350;17.056;2023-06-19T08:47:35;26.00;46.40
68433;DHT22;55412;51.350;17.056;2023-06-19T08:50:01;26.00;46.50
68433;DHT22;55412;51.350;17.056;2023-06-19T08:52:27;26.10;46.80
68433;DHT22;55412;51.350;17.056;2023-06-19T08:54:53;25.90;47.50
68433;DHT22;55412;51.350;17.056;2023-06-19T08:57:19;26.00;45.40
68433;DHT22;55412;51.350;17.056;2023-06-19T08:59:49;26.10;46.90
68433;DHT22;55412;51.350;17.056;2023-06-19T09:02:16;26.00;47.20
68433;DHT22;55412;51.350;17.056;2023-06-19T09:04:43;25.90;47.40
68433;DHT22;55412;51.350;17.056;2023-06-19T09:07:09;25.80;46.40
68433;DHT22;55412;51.350;17.056;2023-06-19T09:09:44;25.90;45.30
68433;DHT22;55412;51.350;17.056;2023-06-19T09:12:14;26.00;45.90
68433;DHT22;55412;51.350;17.056;2023-06-19T09:14:43;26.10;42.70
68433;DHT22;55412;51.350;17.056;2023-06-19T09:17:12;26.40;43.80
68433;DHT22;55412;51.350;17.056;2023-06-19T09:19:52;26.20;45.80
68433;DHT22;55412;51.350;17.056;2023-06-19T09:22:22;25.90;44.40
68433;DHT22;55412;51.350;17.056;2023-06-19T09:24:50;25.70;44.40
68433;DHT22;55412;51.350;17.056;2023-06-19T09:27:18;26.00;41.90
68433;DHT22;55412;51.350;17.056;2023-06-19T09:29:47;26.20;44.90
68433;DHT22;55412;51.350;17.056;2023-06-19T09:34:41;26.20;43.90
68433;DHT22;55412;51.350;17.056;2023-06-19T09:37:08;26.30;42.30
68433;DHT22;55412;51.350;17.056;2023-06-19T09:39:37;26.50;42.50
68433;DHT22;55412;51.350;17.056;2023-06-19T09:42:09;26.50;41.20
68433;DHT22;55412;51.350;17.056;2023-06-19T09:44:43;26.70;40.90
68433;DHT22;55412;51.350;17.056;2023-06-19T09:47:16;26.70;41.30
68433;DHT22;55412;51.350;17.056;2023-06-19T09:49:54;26.90;40.70
68433;DHT22;55412;51.350;17.056;2023-06-19T09:52:22;27.00;41.40
68433;DHT22;55412;51.350;17.056;2023-06-19T09:54:50;27.00;40.20
68433;DHT22;55412;51.350;17.056;2023-06-19T09:57:18;27.00;40.20
68433;DHT22;55412;51.350;17.056;2023-06-19T09:59:52;26.40;43.40
68433;DHT22;55412;51.350;17.056;2023-06-19T10:02:22;26.00;43.50
68433;DHT22;55412;51.350;17.056;2023-06-19T10:04:55;25.80;44.20
68433;DHT22;55412;51.350;17.056;2023-06-19T10:07:24;26.00;42.50
68433;DHT22;55412;51.350;17.056;2023-06-19T10:10:01;26.20;40.80
68433;DHT22;55412;51.350;17.056;2023-06-19T10:12:44;26.50;41.00
68433;DHT22;55412;51.350;17.056;2023-06-19T10:15:25;26.60;40.90
68433;DHT22;55412;51.350;17.056;2023-06-19T10:18:05;26.70;41.60
68433;DHT22;55412;51.350;17.056;2023-06-19T10:20:36;26.80;42.10
68433;DHT22;55412;51.350;17.056;2023-06-19T10:23:10;26.60;43.10
68433;DHT22;55412;51.350;17.056;2023-06-19T10:25:46;26.20;44.00
68433;DHT22;55412;51.350;17.056;2023-06-19T10:28:21;26.10;44.00
68433;DHT22;55412;51.350;17.056;2023-06-19T10:31:05;25.90;44.40
68433;DHT22;55412;51.350;17.056;2023-06-19T10:33:34;25.80;44.40
68433;DHT22;55412;51.350;17.056;2023-06-19T10:36:19;26.10;42.70
68433;DHT22;55412;51.350;17.056;2023-06-19T10:38:48;26.60;42.10
68433;DHT22;55412;51.350;17.056;2023-06-19T10:41:19;26.70;42.70
68433;DHT22;55412;51.350;17.056;2023-06-19T10:44:00;26.40;43.30
68433;DHT22;55412;51.350;17.056;2023-06-19T10:46:36;26.00;43.10
68433;DHT22;55412;51.350;17.056;2023-06-19T10:49:03;25.90;43.30
68433;DHT22;55412;51.350;17.056;2023-06-19T10:51:37;26.00;41.60
68433;DHT22;55412;51.350;17.056;2023-06-19T10:54:04;26.00;42.60
68433;DHT22;55412;51.350;17.056;2023-06-19T10:56:31;25.70;43.20
68433;DHT22;55412;51.350;17.056;2023-06-19T10:59:05;25.70;41.80
68433;DHT22;55412;51.350;17.056;2023-06-19T11:01:39;25.80;40.70
68433;DHT22;55412;51.350;17.056;2023-06-19T11:04:11;26.00;42.20
68433;DHT22;55412;51.350;17.056;2023-06-19T11:06:39;25.80;42.70
68433;DHT22;55412;51.350;17.056;2023-06-19T11:09:07;25.70;44.10
68433;DHT22;55412;51.350;17.056;2023-06-19T11:11:47;25.70;41.50
68433;DHT22;55412;51.350;17.056;2023-06-19T11:14:17;26.20;42.20
68433;DHT22;55412;51.350;17.056;2023-06-19T11:16:46;26.70;41.40
68433;DHT22;55412;51.350;17.056;2023-06-19T11:19:18;26.90;42.10
68433;DHT22;55412;51.350;17.056;2023-06-19T11:21:53;26.80;42.70
68433;DHT22;55412;51.350;17.056;2023-06-19T11:24:22;27.10;41.80
68433;DHT22;55412;51.350;17.056;2023-06-19T11:26:50;27.10;42.00
68433;DHT22;55412;51.350;17.056;2023-06-19T11:29:30;27.20;42.00
68433;DHT22;55412;51.350;17.056;2023-06-19T11:32:13;26.80;41.10
68433;DHT22;55412;51.350;17.056;2023-06-19T11:34:41;26.80;40.60
68433;DHT22;55412;51.350;17.056;2023-06-19T11:37:15;27.10;39.00
68433;DHT22;55412;51.350;17.056;2023-06-19T11:39:44;27.40;39.40
68433;DHT22;55412;51.350;17.056;2023-06-19T11:42:11;27.60;40.00
68433;DHT22;55412;51.350;17.056;2023-06-19T11:45:04;27.60;40.70
68433;DHT22;55412;51.350;17.056;2023-06-19T11:47:32;27.40;40.50
68433;DHT22;55412;51.350;17.056;2023-06-19T11:49:59;27.30;41.30
68433;DHT22;55412;51.350;17.056;2023-06-19T11:52:28;27.30;41.10
68433;DHT22;55412;51.350;17.056;2023-06-19T11:54:54;27.50;40.30
68433;DHT22;55412;51.350;17.056;2023-06-19T11:57:20;27.70;40.80
68433;DHT22;55412;51.350;17.056;2023-06-19T11:59:46;27.80;38.90
68433;DHT22;55412;51.350;17.056;2023-06-19T12:02:12;27.80;38.70
68433;DHT22;55412;51.350;17.056;2023-06-19T12:04:38;27.60;37.60
68433;DHT22;55412;51.350;17.056;2023-06-19T12:07:05;27.50;37.90
68433;DHT22;55412;51.350;17.056;2023-06-19T12:09:32;27.60;36.80
68433;DHT22;55412;51.350;17.056;2023-06-19T12:11:59;27.80;37.60
68433;DHT22;55412;51.350;17.056;2023-06-19T12:14:26;27.90;37.80
68433;DHT22;55412;51.350;17.056;2023-06-19T12:16:52;28.00;37.50
68433;DHT22;55412;51.350;17.056;2023-06-19T12:19:18;28.20;38.40
68433;DHT22;55412;51.350;17.056;2023-06-19T12:25:25;28.10;39.10
68433;DHT22;55412;51.350;17.056;2023-06-19T12:27:51;28.10;37.30
68433;DHT22;55412;51.350;17.056;2023-06-19T12:30:18;28.20;37.20
68433;DHT22;55412;51.350;17.056;2023-06-19T12:32:44;28.20;36.90
68433;DHT22;55412;51.350;17.056;2023-06-19T12:35:13;28.10;37.80
68433;DHT22;55412;51.350;17.056;2023-06-19T12:37:43;28.10;38.60
68433;DHT22;55412;51.350;17.056;2023-06-19T12:40:14;27.70;37.50
68433;DHT22;55412;51.350;17.056;2023-06-19T12:42:45;27.60;38.70
68433;DHT22;55412;51.350;17.056;2023-06-19T12:45:23;27.40;38.40
68433;DHT22;55412;51.350;17.056;2023-06-19T12:47:51;27.50;37.20
68433;DHT22;55412;51.350;17.056;2023-06-19T12:50:17;27.80;39.60
68433;DHT22;55412;51.350;17.056;2023-06-19T12:52:43;27.90;39.20
68433;DHT22;55412;51.350;17.056;2023-06-19T12:55:10;27.90;39.20
68433;DHT22;55412;51.350;17.056;2023-06-19T12:57:36;28.10;39.10
68433;DHT22;55412;51.350;17.056;2023-06-19T13:00:03;28.30;38.50
68433;DHT22;55412;51.350;17.056;2023-06-19T13:02:33;28.40;38.00
68433;DHT22;55412;51.350;17.056;2023-06-19T13:05:00;28.60;37.80
68433;DHT22;55412;51.350;17.056;2023-06-19T13:07:26;28.50;39.00
68433;DHT22;55412;51.350;17.056;2023-06-19T13:09:52;27.90;40.00
68433;DHT22;55412;51.350;17.056;2023-06-19T13:12:18;27.40;40.60
68433;DHT22;55412;51.350;17.056;2023-06-19T13:14:47;27.00;41.80
68433;DHT22;55412;51.350;17.056;2023-06-19T13:17:13;26.70;41.50
68433;DHT22;55412;51.350;17.056;2023-06-19T13:19:40;26.80;41.60
68433;DHT22;55412;51.350;17.056;2023-06-19T13:22:06;26.80;41.40
68433;DHT22;55412;51.350;17.056;2023-06-19T13:24:32;26.90;39.00
68433;DHT22;55412;51.350;17.056;2023-06-19T13:27:01;27.30;38.20
68433;DHT22;55412;51.350;17.056;2023-06-19T13:29:29;27.60;38.20
68433;DHT22;55412;51.350;17.056;2023-06-19T13:31:55;27.80;38.00
68433;DHT22;55412;51.350;17.056;2023-06-19T13:34:21;27.90;38.00
68433;DHT22;55412;51.350;17.056;2023-06-19T13:36:48;27.70;38.90
68433;DHT22;55412;51.350;17.056;2023-06-19T13:39:14;27.80;41.00
68433;DHT22;55412;51.350;17.056;2023-06-19T13:41:40;28.00;39.10
68433;DHT22;55412;51.350;17.056;2023-06-19T13:44:06;28.20;37.90
68433;DHT22;55412;51.350;17.056;2023-06-19T13:46:32;28.20;37.50
68433;DHT22;55412;51.350;17.056;2023-06-19T13:48:59;28.10;38.00
68433;DHT22;55412;51.350;17.056;2023-06-19T13:51:26;28.10;38.90
68433;DHT22;55412;51.350;17.056;2023-06-19T13:53:52;28.00;38.50
68433;DHT22;55412;51.350;17.056;2023-06-19T13:56:19;28.10;37.90
68433;DHT22;55412;51.350;17.056;2023-06-19T13:58:46;28.20;37.70
68433;DHT22;55412;51.350;17.056;2023-06-19T14:01:12;28.30;37.50
68433;DHT22;55412;51.350;17.056;2023-06-19T14:03:38;28.30;37.30
68433;DHT22;55412;51.350;17.056;2023-06-19T14:06:07;28.30;37.30
68433;DHT22;55412;51.350;17.056;2023-06-19T14:08:34;28.20;37.10
68433;DHT22;55412;51.350;17.056;2023-06-19T14:11:00;28.10;37.80
68433;DHT22;55412;51.350;17.056;2023-06-19T14:13:26;28.10;39.00
68433;DHT22;55412;51.350;17.056;2023-06-19T14:15:53;28.10;37.80
68433;DHT22;55412;51.350;17.056;2023-06-19T14:18:23;28.10;37.80
68433;DHT22;55412;51.350;17.056;2023-06-19T14:20:50;27.90;39.30
68433;DHT22;55412;51.350;17.056;2023-06-19T14:23:16;27.90;38.70
68433;DHT22;55412;51.350;17.056;2023-06-19T14:25:42;28.00;39.40
68433;DHT22;55412;51.350;17.056;2023-06-19T14:28:08;27.80;40.50
68433;DHT22;55412;51.350;17.056;2023-06-19T14:30:35;27.50;40.50
68433;DHT22;55412;51.350;17.056;2023-06-19T14:33:01;27.50;39.10
68433;DHT22;55412;51.350;17.056;2023-06-19T14:35:27;27.50;39.80
68433;DHT22;55412;51.350;17.056;2023-06-19T14:37:53;27.50;39.50
68433;DHT22;55412;51.350;17.056;2023-06-19T14:40:19;27.70;38.60
68433;DHT22;55412;51.350;17.056;2023-06-19T14:42:45;27.90;38.30
68433;DHT22;55412;51.350;17.056;2023-06-19T14:45:11;28.00;38.40
68433;DHT22;55412;51.350;17.056;2023-06-19T14:47:37;28.00;38.40
68433;DHT22;55412;51.350;17.056;2023-06-19T14:50:04;28.00;38.10
68433;DHT22;55412;51.350;17.056;2023-06-19T14:52:30;27.70;39.20
68433;DHT22;55412;51.350;17.056;2023-06-19T14:54:56;27.40;39.50
68433;DHT22;55412;51.350;17.056;2023-06-19T14:57:24;27.30;39.00
68433;DHT22;55412;51.350;17.056;2023-06-19T14:59:51;27.30;39.90
68433;DHT22;55412;51.350;17.056;2023-06-19T15:02:17;27.20;40.10
68433;DHT22;55412;51.350;17.056;2023-06-19T15:04:43;27.40;38.90
68433;DHT22;55412;51.350;17.056;2023-06-19T15:07:09;27.50;38.70
68433;DHT22;55412;51.350;17.056;2023-06-19T15:09:35;27.50;39.50
68433;DHT22;55412;51.350;17.056;2023-06-19T15:12:01;27.40;39.40
68433;DHT22;55412;51.350;17.056;2023-06-19T15:14:27;27.40;39.60
68433;DHT22;55412;51.350;17.056;2023-06-19T15:16:53;27.40;39.10
68433;DHT22;55412;51.350;17.056;2023-06-19T15:19:19;27.50;38.50
68433;DHT22;55412;51.350;17.056;2023-06-19T15:21:45;27.60;39.80
68433;DHT22;55412;51.350;17.056;2023-06-19T15:24:11;27.60;38.00
68433;DHT22;55412;51.350;17.056;2023-06-19T15:26:37;27.60;38.20